sensor_id;sensor_type;location;lat;lon;timestamp;temperature;humidity
35920;DHT22;36160;53.370;-6.196;2023-03-17T00:00:44;10.10;99.90
35920;DHT22;36160;53.370;-6.196;2023-03-17T00:03:27;10.10;99.90
35920;DHT22;36160;53.370;-6.196;2023-03-17T00:05:55;10.00;99.90
35920;DHT22;36160;53.370;-6.196;2023-03-17T00:08:24;9.90;99.90
35920;DHT22;36160;53.370;-6.196;2023-03-17T00:10:51;9.90;99.90
35920;DHT22;36160;53.370;-6.196;2023-03-17T00:13:17;9.90;99.90
35920;DHT22;36160;53.370;-6.196;2023-03-17T00:15:44;9.70;99.90
35920;DHT22;36160;53.370;-6.196;2023-03-17T00:18:16;9.70;99.90
35920;DHT22;36160;53.370;-6.196;2023-03-17T00:20:43;9.70;99.90
35920;DHT22;36160;53.370;-6.196;2023-03-17T00:23:14;9.80;99.90
35920;DHT22;36160;53.370;-6.196;2023-03-17T00:25:40;9.80;99.90
35920;DHT22;36160;53.370;-6.196;2023-03-17T00:30:44;9.80;99.90
35920;DHT22;36160;53.370;-6.196;2023-03-17T00:33:10;9.80;99.90
35920;DHT22;36160;53.370;-6.196;2023-03-17T00:35:37;9.70;99.90
35920;DHT22;36160;53.370;-6.196;2023-03-17T00:38:05;9.70;99.90
35920;DHT22;36160;53.370;-6.196;2023-03-17T00:40:31;9.70;99.90
35920;DHT22;36160;53.370;-6.196;2023-03-17T00:42:58;9.60;99.90
35920;DHT22;36160;53.370;-6.196;2023-03-17T00:45:27;9.60;99.90
35920;DHT22;36160;53.370;-6.196;2023-03-17T00:47:54;9.60;99.90
35920;DHT22;36160;53.370;-6.196;2023-03-17T00:50:24;9.60;99.90
35920;DHT22;36160;53.370;-6.196;2023-03-17T00:52:52;9.60;99.90
35920;DHT22;36160;53.370;-6.196;2023-03-17T00:55:19;9.70;99.90
35920;DHT22;36160;53.370;-6.196;2023-03-17T00:57:46;9.60;99.90
35920;DHT22;36160;53.370;-6.196;2023-03-17T01:00:18;9.70;99.90
35920;DHT22;36160;53.370;-6.196;2023-03-17T01:02:44;9.60;99.90
35920;DHT22;36160;53.370;-6.196;2023-03-17T01:05:11;9.60;99.90
35920;DHT22;36160;53.370;-6.196;2023-03-17T01:07:37;9.60;99.90
35920;DHT22;36160;53.370;-6.196;2023-03-17T01:10:12;9.70;99.90
35920;DHT22;36160;53.370;-6.196;2023-03-17T01:12:39;9.70;99.90
35920;DHT22;36160;53.370;-6.196;2023-03-17T01:15:05;9.80;99.90
35920;DHT22;36160;53.370;-6.196;2023-03-17T01:17:31;9.80;99.90
35920;DHT22;36160;53.370;-6.196;2023-03-17T01:19:57;9.90;99.90
35920;DHT22;36160;53.370;-6.196;2023-03-17T01:22:23;9.80;99.90
35920;DHT22;36160;53.370;-6.196;2023-03-17T01:24:50;9.90;99.90
35920;DHT22;36160;53.370;-6.196;2023-03-17T01:27:17;9.90;99.90
35920;DHT22;36160;53.370;-6.196;2023-03-17T01:29:43;9.90;99.90
35920;DHT22;36160;53.370;-6.196;2023-03-17T01:32:09;9.90;99.90
35920;DHT22;36160;53.370;-6.196;2023-03-17T01:34:35;9.90;99.90
35920;DHT22;36160;53.370;-6.196;2023-03-17T01:37:01;9.80;99.90
35920;DHT22;36160;53.370;-6.196;2023-03-17T01:39:26;9.80;99.90
35920;DHT22;36160;53.370;-6.196;2023-03-17T01:41:52;9.80;99.90
35920;DHT22;36160;53.370;-6.196;2023-03-17T01:44:22;9.70;99.90
35920;DHT22;36160;53.370;-6.196;2023-03-17T01:46:48;9.70;99.90
35920;DHT22;36160;53.370;-6.196;2023-03-17T01:52:02;9.70;99.90
35920;DHT22;36160;53.370;-6.196;2023-03-17T01:54:40;9.70;99.90
35920;DHT22;36160;53.370;-6.196;2023-03-17T02:00:02;9.80;99.90
35920;DHT22;36160;53.370;-6.196;2023-03-17T02:02:33;9.80;99.90
35920;DHT22;36160;53.370;-6.196;2023-03-17T02:05:00;9.80;99.90
35920;DHT22;36160;53.370;-6.196;2023-03-17T02:07:28;9.80;99.90
35920;DHT22;36160;53.370;-6.196;2023-03-17T02:09:55;9.80;99.90
35920;DHT22;36160;53.370;-6.196;2023-03-17T02:12:22;9.80;99.90
35920;DHT22;36160;53.370;-6.196;2023-03-17T02:14:49;9.80;99.90
35920;DHT22;36160;53.370;-6.196;2023-03-17T02:17:20;9.90;99.90
35920;DHT22;36160;53.370;-6.196;2023-03-17T02:19:46;9.90;99.90
35920;DHT22;36160;53.370;-6.196;2023-03-17T02:22:12;9.90;99.90
35920;DHT22;36160;53.370;-6.196;2023-03-17T02:24:47;9.90;99.90
35920;DHT22;36160;53.370;-6.196;2023-03-17T02:27:23;9.80;99.90
35920;DHT22;36160;53.370;-6.196;2023-03-17T02:29:49;9.90;99.90
35920;DHT22;36160;53.370;-6.196;2023-03-17T02:32:17;9.90;99.90
35920;DHT22;36160;53.370;-6.196;2023-03-17T02:34:46;9.80;99.90
35920;DHT22;36160;53.370;-6.196;2023-03-17T02:37:12;9.80;99.90
35920;DHT22;36160;53.370;-6.196;2023-03-17T02:39:38;9.80;99.90
35920;DHT22;36160;53.370;-6.196;2023-03-17T02:42:05;9.80;99.90
35920;DHT22;36160;53.370;-6.196;2023-03-17T02:44:31;9.70;99.90
35920;DHT22;36160;53.370;-6.196;2023-03-17T02:46:58;9.70;99.90
35920;DHT22;36160;53.370;-6.196;2023-03-17T02:49:24;9.70;99.90
35920;DHT22;36160;53.370;-6.196;2023-03-17T02:51:51;9.70;99.90
35920;DHT22;36160;53.370;-6.196;2023-03-17T02:54:17;9.70;99.90
35920;DHT22;36160;53.370;-6.196;2023-03-17T02:56:43;9.70;99.90
35920;DHT22;36160;53.370;-6.196;2023-03-17T02:59:09;9.70;99.90
35920;DHT22;36160;53.370;-6.196;2023-03-17T03:01:35;9.70;99.90
35920;DHT22;36160;53.370;-6.196;2023-03-17T03:04:01;9.60;99.90
35920;DHT22;36160;53.370;-6.196;2023-03-17T03:06:28;9.60;99.90
35920;DHT22;36160;53.370;-6.196;2023-03-17T03:08:53;9.60;99.90
35920;DHT22;36160;53.370;-6.196;2023-03-17T03:11:19;9.60;99.90
35920;DHT22;36160;53.370;-6.196;2023-03-17T03:13:45;9.60;99.90
35920;DHT22;36160;53.370;-6.196;2023-03-17T03:16:11;9.60;99.90
35920;DHT22;36160;53.370;-6.196;2023-03-17T03:18:37;9.50;99.90
35920;DHT22;36160;53.370;-6.196;2023-03-17T03:21:04;9.60;99.90
35920;DHT22;36160;53.370;-6.196;2023-03-17T03:23:30;9.60;99.90
35920;DHT22;36160;53.370;-6.196;2023-03-17T03:25:56;9.60;99.90
35920;DHT22;36160;53.370;-6.196;2023-03-17T03:28:22;9.60;99.90
35920;DHT22;36160;53.370;-6.196;2023-03-17T03:30:48;9.60;99.90
35920;DHT22;36160;53.370;-6.196;2023-03-17T03:33:15;9.60;99.90
35920;DHT22;36160;53.370;-6.196;2023-03-17T03:35:41;9.60;99.90
35920;DHT22;36160;53.370;-6.196;2023-03-17T03:38:07;9.60;99.90
35920;DHT22;36160;53.370;-6.196;2023-03-17T03:40:35;9.50;99.90
35920;DHT22;36160;53.370;-6.196;2023-03-17T03:43:01;9.50;99.90
35920;DHT22;36160;53.370;-6.196;2023-03-17T03:45:27;9.50;99.90
35920;DHT22;36160;53.370;-6.196;2023-03-17T03:47:53;9.40;99.90
35920;DHT22;36160;53.370;-6.196;2023-03-17T03:50:20;9.40;99.90
35920;DHT22;36160;53.370;-6.196;2023-03-17T03:52:46;9.40;99.90
35920;DHT22;36160;53.370;-6.196;2023-03-17T03:55:12;9.40;99.90
35920;DHT22;36160;53.370;-6.196;2023-03-17T03:57:37;9.40;99.90
35920;DHT22;36160;53.370;-6.196;2023-03-17T04:00:04;9.40;99.90
35920;DHT22;36160;53.370;-6.196;2023-03-17T04:02:30;9.40;99.90
35920;DHT22;36160;53.370;-6.196;2023-03-17T04:04:56;9.40;99.90
35920;DHT22;36160;53.370;-6.196;2023-03-17T04:07:22;9.50;99.90
35920;DHT22;36160;53.370;-6.196;2023-03-17T04:09:48;9.50;99.90
35920;DHT22;36160;53.370;-6.196;2023-03-17T04:12:15;9.50;99.90
35920;DHT22;36160;53.370;-6.196;2023-03-17T04:14:40;9.60;99.90
35920;DHT22;36160;53.370;-6.196;2023-03-17T04:17:07;9.60;99.90
35920;DHT22;36160;53.370;-6.196;2023-03-17T04:19:33;9.60;99.90
35920;DHT22;36160;53.370;-6.196;2023-03-17T04:21:59;9.60;99.90
35920;DHT22;36160;53.370;-6.196;2023-03-17T04:24:25;9.60;99.90
35920;DHT22;36160;53.370;-6.196;2023-03-17T04:26:52;9.60;99.90
35920;DHT22;36160;53.370;-6.196;2023-03-17T04:29:18;9.70;99.90
35920;DHT22;36160;53.370;-6.196;2023-03-17T04:31:44;9.70;99.90
35920;DHT22;36160;53.370;-6.196;2023-03-17T04:34:14;9.70;99.90
35920;DHT22;36160;53.370;-6.196;2023-03-17T04:36:41;9.70;99.90
35920;DHT22;36160;53.370;-6.196;2023-03-17T04:39:07;9.70;99.90
35920;DHT22;36160;53.370;-6.196;2023-03-17T04:41:33;9.60;99.90
35920;DHT22;36160;53.370;-6.196;2023-03-17T04:43:59;9.70;99.90
35920;DHT22;36160;53.370;-6.196;2023-03-17T04:46:24;9.70;99.90
35920;DHT22;36160;53.370;-6.196;2023-03-17T04:48:50;9.60;99.90
35920;DHT22;36160;53.370;-6.196;2023-03-17T04:51:16;9.60;99.90
35920;DHT22;36160;53.370;-6.196;2023-03-17T04:53:42;9.60;99.90
35920;DHT22;36160;53.370;-6.196;2023-03-17T04:56:09;9.60;99.90
35920;DHT22;36160;53.370;-6.196;2023-03-17T04:58:35;9.60;99.90
35920;DHT22;36160;53.370;-6.196;2023-03-17T05:01:01;9.60;99.90
35920;DHT22;36160;53.370;-6.196;2023-03-17T05:03:28;9.60;99.90
35920;DHT22;36160;53.370;-6.196;2023-03-17T05:05:58;9.70;99.90
35920;DHT22;36160;53.370;-6.196;2023-03-17T05:08:24;9.70;99.90
35920;DHT22;36160;53.370;-6.196;2023-03-17T05:10:50;9.70;99.90
35920;DHT22;36160;53.370;-6.196;2023-03-17T05:13:17;9.70;99.90
35920;DHT22;36160;53.370;-6.196;2023-03-17T05:15:46;9.70;99.90
35920;DHT22;36160;53.370;-6.196;2023-03-17T05:18:11;9.60;99.90
35920;DHT22;36160;53.370;-6.196;2023-03-17T05:20:37;9.70;99.90
35920;DHT22;36160;53.370;-6.196;2023-03-17T05:23:03;9.60;99.90
35920;DHT22;36160;53.370;-6.196;2023-03-17T05:25:28;9.60;99.90
35920;DHT22;36160;53.370;-6.196;2023-03-17T05:27:54;9.60;99.90
35920;DHT22;36160;53.370;-6.196;2023-03-17T05:30:20;9.60;99.90
35920;DHT22;36160;53.370;-6.196;2023-03-17T05:32:45;9.60;99.90
35920;DHT22;36160;53.370;-6.196;2023-03-17T05:35:11;9.60;99.90
35920;DHT22;36160;53.370;-6.196;2023-03-17T05:37:37;9.60;99.90
35920;DHT22;36160;53.370;-6.196;2023-03-17T05:40:03;9.50;99.90
35920;DHT22;36160;53.370;-6.196;2023-03-17T05:42:29;9.50;99.90
35920;DHT22;36160;53.370;-6.196;2023-03-17T05:44:55;9.60;99.90
35920;DHT22;36160;53.370;-6.196;2023-03-17T05:47:21;9.60;99.90
35920;DHT22;36160;53.370;-6.196;2023-03-17T05:49:47;9.50;99.90
35920;DHT22;36160;53.370;-6.196;2023-03-17T05:52:13;9.60;99.90
35920;DHT22;36160;53.370;-6.196;2023-03-17T05:54:39;9.60;99.90
35920;DHT22;36160;53.370;-6.196;2023-03-17T05:57:05;9.60;99.90
35920;DHT22;36160;53.370;-6.196;2023-03-17T05:59:30;9.60;99.90
35920;DHT22;36160;53.370;-6.196;2023-03-17T06:01:56;9.60;99.90
35920;DHT22;36160;53.370;-6.196;2023-03-17T06:04:22;9.60;99.90
35920;DHT22;36160;53.370;-6.196;2023-03-17T06:06:47;9.60;99.90
35920;DHT22;36160;53.370;-6.196;2023-03-17T06:09:13;9.60;99.90
35920;DHT22;36160;53.370;-6.196;2023-03-17T06:11:39;9.60;99.90
35920;DHT22;36160;53.370;-6.196;2023-03-17T06:14:06;9.70;99.90
35920;DHT22;36160;53.370;-6.196;2023-03-17T06:16:31;9.70;99.90
35920;DHT22;36160;53.370;-6.196;2023-03-17T06:18:57;9.60;99.90
35920;DHT22;36160;53.370;-6.196;2023-03-17T06:21:23;9.60;99.90
35920;DHT22;36160;53.370;-6.196;2023-03-17T06:23:49;9.60;99.90
35920;DHT22;36160;53.370;-6.196;2023-03-17T06:26:15;9.70;99.90
35920;DHT22;36160;53.370;-6.196;2023-03-17T06:28:41;9.60;99.90
35920;DHT22;36160;53.370;-6.196;2023-03-17T06:31:06;9.60;99.90
35920;DHT22;36160;53.370;-6.196;2023-03-17T06:33:33;9.60;99.90
35920;DHT22;36160;53.370;-6.196;2023-03-17T06:35:59;9.60;99.90
35920;DHT22;36160;53.370;-6.196;2023-03-17T06:38:26;9.50;99.90
35920;DHT22;36160;53.370;-6.196;2023-03-17T06:40:52;9.60;99.90
35920;DHT22;36160;53.370;-6.196;2023-03-17T06:43:18;9.60;99.90
35920;DHT22;36160;53.370;-6.196;2023-03-17T06:45:45;9.50;99.90
35920;DHT22;36160;53.370;-6.196;2023-03-17T06:48:11;9.50;99.90
35920;DHT22;36160;53.370;-6.196;2023-03-17T06:50:36;9.50;99.90
35920;DHT22;36160;53.370;-6.196;2023-03-17T06:53:03;9.50;99.90
35920;DHT22;36160;53.370;-6.196;2023-03-17T06:55:29;9.50;99.90
35920;DHT22;36160;53.370;-6.196;2023-03-17T06:57:54;9.60;99.90
35920;DHT22;36160;53.370;-6.196;2023-03-17T07:00:20;9.50;99.90
35920;DHT22;36160;53.370;-6.196;2023-03-17T07:02:47;9.50;99.90
35920;DHT22;36160;53.370;-6.196;2023-03-17T07:05:14;9.50;99.90
35920;DHT22;36160;53.370;-6.196;2023-03-17T07:07:40;9.50;99.90
35920;DHT22;36160;53.370;-6.196;2023-03-17T07:10:06;9.60;99.90
35920;DHT22;36160;53.370;-6.196;2023-03-17T07:12:35;9.50;99.90
35920;DHT22;36160;53.370;-6.196;2023-03-17T07:15:01;9.50;99.90
35920;DHT22;36160;53.370;-6.196;2023-03-17T07:17:28;9.60;99.90
35920;DHT22;36160;53.370;-6.196;2023-03-17T07:19:54;9.50;99.90
35920;DHT22;36160;53.370;-6.196;2023-03-17T07:22:21;9.50;99.90
35920;DHT22;36160;53.370;-6.196;2023-03-17T07:24:46;9.50;99.90
35920;DHT22;36160;53.370;-6.196;2023-03-17T07:27:14;9.50;99.90
35920;DHT22;36160;53.370;-6.196;2023-03-17T07:29:40;9.60;99.90
35920;DHT22;36160;53.370;-6.196;2023-03-17T07:32:06;9.70;99.90
35920;DHT22;36160;53.370;-6.196;2023-03-17T07:34:34;9.70;99.90
35920;DHT22;36160;53.370;-6.196;2023-03-17T07:37:01;9.60;99.90
35920;DHT22;36160;53.370;-6.196;2023-03-17T07:39:26;9.70;99.90
35920;DHT22;36160;53.370;-6.196;2023-03-17T07:41:52;9.80;99.90
35920;DHT22;36160;53.370;-6.196;2023-03-17T07:44:21;9.80;99.90
35920;DHT22;36160;53.370;-6.196;2023-03-17T07:46:48;9.80;99.90
35920;DHT22;36160;53.370;-6.196;2023-03-17T07:49:14;9.80;99.90
35920;DHT22;36160;53.370;-6.196;2023-03-17T07:51:40;9.90;99.90
35920;DHT22;36160;53.370;-6.196;2023-03-17T07:54:11;9.90;99.90
35920;DHT22;36160;53.370;-6.196;2023-03-17T07:56:37;10.00;99.90
35920;DHT22;36160;53.370;-6.196;2023-03-17T07:59:04;10.00;99.90
35920;DHT22;36160;53.370;-6.196;2023-03-17T08:01:32;10.10;99.90
35920;DHT22;36160;53.370;-6.196;2023-03-17T08:03:58;10.20;99.90
35920;DHT22;36160;53.370;-6.196;2023-03-17T08:06:24;10.20;99.90
35920;DHT22;36160;53.370;-6.196;2023-03-17T08:08:52;10.20;99.90
35920;DHT22;36160;53.370;-6.196;2023-03-17T08:11:18;10.30;99.90
35920;DHT22;36160;53.370;-6.196;2023-03-17T08:13:44;10.30;99.90
35920;DHT22;36160;53.370;-6.196;2023-03-17T08:16:10;10.50;99.90
35920;DHT22;36160;53.370;-6.196;2023-03-17T08:18:36;10.60;99.90
35920;DHT22;36160;53.370;-6.196;2023-03-17T08:21:03;10.60;99.90
35920;DHT22;36160;53.370;-6.196;2023-03-17T08:23:29;10.60;99.90
35920;DHT22;36160;53.370;-6.196;2023-03-17T08:25:59;10.80;99.90
35920;DHT22;36160;53.370;-6.196;2023-03-17T08:28:25;10.80;99.90
35920;DHT22;36160;53.370;-6.196;2023-03-17T08:30:52;10.70;99.90
35920;DHT22;36160;53.370;-6.196;2023-03-17T08:33:18;10.80;99.90
35920;DHT22;36160;53.370;-6.196;2023-03-17T08:35:44;10.90;99.90
35920;DHT22;36160;53.370;-6.196;2023-03-17T08:38:10;10.90;99.90
35920;DHT22;36160;53.370;-6.196;2023-03-17T08:40:38;10.80;99.90
35920;DHT22;36160;53.370;-6.196;2023-03-17T08:43:05;10.70;99.90
35920;DHT22;36160;53.370;-6.196;2023-03-17T08:45:32;10.70;99.90
35920;DHT22;36160;53.370;-6.196;2023-03-17T08:47:57;10.70;99.90
35920;DHT22;36160;53.370;-6.196;2023-03-17T08:50:24;10.70;99.90
35920;DHT22;36160;53.370;-6.196;2023-03-17T08:52:50;10.70;99.90
35920;DHT22;36160;53.370;-6.196;2023-03-17T08:55:16;10.80;99.90
35920;DHT22;36160;53.370;-6.196;2023-03-17T08:57:43;10.80;99.90
35920;DHT22;36160;53.370;-6.196;2023-03-17T09:00:12;10.80;99.90
35920;DHT22;36160;53.370;-6.196;2023-03-17T09:02:42;10.90;99.90
35920;DHT22;36160;53.370;-6.196;2023-03-17T09:05:08;10.90;99.90
35920;DHT22;36160;53.370;-6.196;2023-03-17T09:07:35;11.00;99.90
35920;DHT22;36160;53.370;-6.196;2023-03-17T09:10:02;11.00;99.90
35920;DHT22;36160;53.370;-6.196;2023-03-17T09:12:28;11.00;99.90
35920;DHT22;36160;53.370;-6.196;2023-03-17T09:14:54;11.00;99.90
35920;DHT22;36160;53.370;-6.196;2023-03-17T09:17:20;11.00;99.90
35920;DHT22;36160;53.370;-6.196;2023-03-17T09:19:46;11.10;99.90
35920;DHT22;36160;53.370;-6.196;2023-03-17T09:22:14;11.10;99.90
35920;DHT22;36160;53.370;-6.196;2023-03-17T09:24:40;11.10;99.90
35920;DHT22;36160;53.370;-6.196;2023-03-17T09:27:06;11.10;99.90
35920;DHT22;36160;53.370;-6.196;2023-03-17T09:29:32;11.10;99.90
35920;DHT22;36160;53.370;-6.196;2023-03-17T09:31:59;11.20;99.90
35920;DHT22;36160;53.370;-6.196;2023-03-17T09:34:25;11.20;99.90
35920;DHT22;36160;53.370;-6.196;2023-03-17T09:36:52;11.20;99.90
35920;DHT22;36160;53.370;-6.196;2023-03-17T09:39:19;11.20;99.90
35920;DHT22;36160;53.370;-6.196;2023-03-17T09:48:00;11.20;99.90
35920;DHT22;36160;53.370;-6.196;2023-03-17T09:53:24;11.10;99.90
35920;DHT22;36160;53.370;-6.196;2023-03-17T09:55:54;11.10;99.90
35920;DHT22;36160;53.370;-6.196;2023-03-17T09:58:29;11.10;99.90
35920;DHT22;36160;53.370;-6.196;2023-03-17T10:00:57;11.10;99.90
35920;DHT22;36160;53.370;-6.196;2023-03-17T10:03:24;11.10;99.90
35920;DHT22;36160;53.370;-6.196;2023-03-17T10:05:50;11.10;99.90
35920;DHT22;36160;53.370;-6.196;2023-03-17T10:08:31;11.10;99.90
35920;DHT22;36160;53.370;-6.196;2023-03-17T10:11:14;11.20;99.90
35920;DHT22;36160;53.370;-6.196;2023-03-17T10:19:27;11.20;99.90
35920;DHT22;36160;53.370;-6.196;2023-03-17T10:22:38;11.20;99.90
35920;DHT22;36160;53.370;-6.196;2023-03-17T10:25:17;11.20;99.90
35920;DHT22;36160;53.370;-6.196;2023-03-17T10:28:24;11.20;99.90
35920;DHT22;36160;53.370;-6.196;2023-03-17T10:30:52;11.20;99.90
35920;DHT22;36160;53.370;-6.196;2023-03-17T10:33:19;11.30;99.90
35920;DHT22;36160;53.370;-6.196;2023-03-17T10:35:45;11.30;99.90
35920;DHT22;36160;53.370;-6.196;2023-03-17T10:38:18;11.40;99.90
35920;DHT22;36160;53.370;-6.196;2023-03-17T10:40:58;11.30;99.90
35920;DHT22;36160;53.370;-6.196;2023-03-17T10:43:30;11.40;99.90
35920;DHT22;36160;53.370;-6.196;2023-03-17T10:46:03;11.30;99.90
35920;DHT22;36160;53.370;-6.196;2023-03-17T10:48:34;11.30;99.90
35920;DHT22;36160;53.370;-6.196;2023-03-17T10:51:08;11.30;99.90
35920;DHT22;36160;53.370;-6.196;2023-03-17T10:53:38;11.30;99.90
35920;DHT22;36160;53.370;-6.196;2023-03-17T10:56:09;11.30;99.90
35920;DHT22;36160;53.370;-6.196;2023-03-17T10:58:50;11.20;99.90
35920;DHT22;36160;53.370;-6.196;2023-03-17T11:01:39;11.30;99.90
35920;DHT22;36160;53.370;-6.196;2023-03-17T11:04:27;11.20;99.90
35920;DHT22;36160;53.370;-6.196;2023-03-17T11:06:58;11.20;99.90
35920;DHT22;36160;53.370;-6.196;2023-03-17T11:09:25;11.10;99.90
35920;DHT22;36160;53.370;-6.196;2023-03-17T11:12:04;11.10;99.90
35920;DHT22;36160;53.370;-6.196;2023-03-17T11:14:30;11.00;99.90
35920;DHT22;36160;53.370;-6.196;2023-03-17T11:17:12;11.00;99.90
35920;DHT22;36160;53.370;-6.196;2023-03-17T11:19:55;11.00;99.90
35920;DHT22;36160;53.370;-6.196;2023-03-17T11:22:35;10.90;99.90
35920;DHT22;36160;53.370;-6.196;2023-03-17T11:25:04;11.00;99.90
35920;DHT22;36160;53.370;-6.196;2023-03-17T11:27:37;11.00;99.90
35920;DHT22;36160;53.370;-6.196;2023-03-17T11:30:28;11.00;99.90
35920;DHT22;36160;53.370;-6.196;2023-03-17T11:44:35;10.90;99.90
35920;DHT22;36160;53.370;-6.196;2023-03-17T11:47:18;10.90;99.90
35920;DHT22;36160;53.370;-6.196;2023-03-17T11:53:22;11.00;99.90
35920;DHT22;36160;53.370;-6.196;2023-03-17T11:56:02;11.00;99.90
35920;DHT22;36160;53.370;-6.196;2023-03-17T11:58:58;11.00;99.90
35920;DHT22;36160;53.370;-6.196;2023-03-17T12:01:29;11.00;99.90
35920;DHT22;36160;53.370;-6.196;2023-03-17T12:04:21;11.10;99.90
35920;DHT22;36160;53.370;-6.196;2023-03-17T12:06:59;11.10;99.90
35920;DHT22;36160;53.370;-6.196;2023-03-17T12:09:38;11.20;99.90
35920;DHT22;36160;53.370;-6.196;2023-03-17T12:12:08;11.20;99.90
35920;DHT22;36160;53.370;-6.196;2023-03-17T12:14:42;11.10;99.90
35920;DHT22;36160;53.370;-6.196;2023-03-17T12:17:10;11.10;99.90
35920;DHT22;36160;53.370;-6.196;2023-03-17T12:20:02;11.10;99.90
35920;DHT22;36160;53.370;-6.196;2023-03-17T12:22:43;11.10;99.90
35920;DHT22;36160;53.370;-6.196;2023-03-17T12:28:09;11.20;99.90
35920;DHT22;36160;53.370;-6.196;2023-03-17T12:30:52;11.20;99.90
35920;DHT22;36160;53.370;-6.196;2023-03-17T12:36:22;11.30;99.90
35920;DHT22;36160;53.370;-6.196;2023-03-17T12:38:57;11.30;99.90
35920;DHT22;36160;53.370;-6.196;2023-03-17T12:44:19;11.30;99.90
35920;DHT22;36160;53.370;-6.196;2023-03-17T12:55:24;11.40;99.90
35920;DHT22;36160;53.370;-6.196;2023-03-17T12:58:27;11.30;99.90
35920;DHT22;36160;53.370;-6.196;2023-03-17T13:03:25;11.60;99.90
35920;DHT22;36160;53.370;-6.196;2023-03-17T13:05:59;11.70;99.90
35920;DHT22;36160;53.370;-6.196;2023-03-17T13:08:38;11.70;99.90
35920;DHT22;36160;53.370;-6.196;2023-03-17T13:22:39;11.90;99.90
35920;DHT22;36160;53.370;-6.196;2023-03-17T13:25:13;11.80;99.90
35920;DHT22;36160;53.370;-6.196;2023-03-17T13:27:42;11.80;99.90
35920;DHT22;36160;53.370;-6.196;2023-03-17T13:41:06;12.00;99.90
35920;DHT22;36160;53.370;-6.196;2023-03-17T13:43:55;11.90;99.90
35920;DHT22;36160;53.370;-6.196;2023-03-17T13:48:53;11.90;99.90
35920;DHT22;36160;53.370;-6.196;2023-03-17T13:51:30;11.90;99.90
35920;DHT22;36160;53.370;-6.196;2023-03-17T13:54:18;11.80;99.90
35920;DHT22;36160;53.370;-6.196;2023-03-17T13:56:45;11.70;99.90
35920;DHT22;36160;53.370;-6.196;2023-03-17T15:29:07;11.50;99.90
35920;DHT22;36160;53.370;-6.196;2023-03-17T15:31:33;11.40;99.90
35920;DHT22;36160;53.370;-6.196;2023-03-17T15:33:59;11.20;99.90
35920;DHT22;36160;53.370;-6.196;2023-03-17T15:36:25;11.20;99.90
35920;DHT22;36160;53.370;-6.196;2023-03-17T15:38:50;11.20;99.90
35920;DHT22;36160;53.370;-6.196;2023-03-17T15:41:16;11.20;99.90
35920;DHT22;36160;53.370;-6.196;2023-03-17T15:43:42;11.20;99.90
35920;DHT22;36160;53.370;-6.196;2023-03-17T15:46:17;11.20;99.90
35920;DHT22;36160;53.370;-6.196;2023-03-17T15:48:44;11.30;99.90
35920;DHT22;36160;53.370;-6.196;2023-03-17T15:51:10;11.20;99.90
35920;DHT22;36160;53.370;-6.196;2023-03-17T15:53:36;11.40;99.90
35920;DHT22;36160;53.370;-6.196;2023-03-17T15:56:02;11.50;99.90
35920;DHT22;36160;53.370;-6.196;2023-03-17T15:58:28;11.50;99.90
35920;DHT22;36160;53.370;-6.196;2023-03-17T16:00:56;11.60;99.90
